Time;durP1;ratioP1;P1;durP2;ratioP2;P2;SDS_P1;SDS_P2;PMS_P1;PMS_P2;Temp;Humidity;BMP_temperature;BMP_pressure;BME280_temperature;BME280_humidity;BME280_pressure;Samples;Min_cycle;Max_cycle;Signal;HPM_P1;HPM_P2
2021/08/08 00:02:04;;;;;;;;;;;;;;;;;;5051108;28;19909;-62
2021/08/08 00:04:29;;;;;;;;;;;;;;;;;;5033910;28;20430;-60
2021/08/08 00:06:55;;;;;;;;;;;;;;;;;;5050891;28;19917;-61
2021/08/08 00:09:21;;;;;;;;;;;;;;;;;;5032455;28;19994;-61
2021/08/08 00:11:47;;;;;;;;;;;;;;;;;;5051387;28;19913;-61
2021/08/08 00:14:13;;;;;;;;;;;;;;;;;;5054678;28;20299;-61
2021/08/08 00:16:39;;;;;;;;;;;;;;;;;;5055736;28;19908;-61
2021/08/08 00:19:05;;;;;;;;;;;;;;;;;;5054795;28;19913;-60
2021/08/08 00:21:31;;;;;;;;;;;;;;;;;;5054384;28;19913;-61
2021/08/08 00:23:56;;;;;;;;;;;;;;;;;;5054593;28;19966;-61
2021/08/08 00:26:22;;;;;;;;;;;;;;;;;;5055038;28;19923;-60
2021/08/08 00:28:49;;;;;;;;;;;;;;;;;;5054887;28;19909;-61
2021/08/08 00:31:16;;;;;;;;;;;;;;;;;;5055037;28;19909;-61
2021/08/08 00:33:42;;;;;;;;;;;;;;;;;;5054509;28;19936;-61
2021/08/08 00:36:08;;;;;;;;;;;;;;;;;;5054348;28;19917;-61
2021/08/08 00:38:34;;;;;;;;;;;;;;;;;;5054154;28;19920;-61
2021/08/08 00:40:59;;;;;;;;;;;;;;;;;;5054935;28;19999;-60
2021/08/08 00:43:25;;;;;;;;;;;;;;;;;;5054965;28;20272;-60
2021/08/08 00:45:51;;;;;;;;;;;;;;;;;;5054250;28;19917;-61
2021/08/08 00:48:17;;;;;;;;;;;;;;;;;;5054050;28;20334;-61
2021/08/08 00:50:43;;;;;;;;;;;;;;;;;;5034723;28;19919;-60
2021/08/08 00:53:09;;;;;;;;;;;;;;;;;;5053693;28;19967;-60
2021/08/08 00:55:35;;;;;;;;;;;;;;;;;;5053620;28;20006;-61
2021/08/08 00:58:01;;;;;;;;;;;;;;;;;;5054154;28;19936;-60
2021/08/08 01:00:27;;;;;;;;;;;;;;;;;;5053879;28;20276;-60
2021/08/08 01:02:52;;;;;;;;;;;;;;;;;;5053868;28;19942;-60
2021/08/08 01:05:18;;;;;;;;;;;;;;;;;;5054044;28;20332;-60
2021/08/08 01:07:44;;;;;;;;;;;;;;;;;;5054517;28;19913;-60
2021/08/08 01:10:10;;;;;;;;;;;;;;;;;;5054269;28;19962;-60
2021/08/08 01:12:36;;;;;;;;;;;;;;;;;;5053219;28;20344;-60
2021/08/08 01:15:02;;;;;;;;;;;;;;;;;;5053983;28;19925;-60
2021/08/08 01:17:28;;;;;;;;;;;;;;;;;;5053909;28;19986;-61
2021/08/08 01:19:54;;;;;;;;;;;;;;;;;;5054080;28;19909;-60
2021/08/08 01:22:19;;;;;;;;;;;;;;;;;;5053259;28;19931;-60
2021/08/08 01:24:45;;;;;;;;;;;;;;;;;;5052537;28;19919;-60
2021/08/08 01:27:11;;;;;;;;;;;;;;;;;;5053644;28;20383;-60
2021/08/08 01:29:37;;;;;;;;;;;;;;;;;;5053766;28;19921;-60
2021/08/08 01:32:03;;;;;;;;;;;;;;;;;;5053127;28;19945;-61
2021/08/08 01:34:29;;;;;;;;;;;;;;;;;;5053434;28;19917;-60
2021/08/08 01:36:55;;;;;;;;;;;;;;;;;;5053249;28;19912;-61
2021/08/08 01:39:21;;;;;;;;;;;;;;;;;;5053495;28;19970;-61
2021/08/08 01:41:46;;;;;;;;;;;;;;;;;;5053243;28;20289;-60
2021/08/08 01:44:12;;;;;;;;;;;;;;;;;;5052868;28;19964;-61
2021/08/08 01:46:38;;;;;;;;;;;;;;;;;;5053863;28;19963;-61
2021/08/08 01:49:04;;;;;;;;;;;;;;;;;;5053258;28;19913;-60
2021/08/08 01:51:30;;;;;;;;;;;;;;;;;;5053177;28;19913;-61
2021/08/08 01:53:56;;;;;;;;;;;;;;;;;;5052480;28;20304;-61
2021/08/08 01:56:22;;;;;;;;;;;;;;;;;;5052646;28;19921;-61
2021/08/08 01:58:50;;;;;;;;;;;;;;;;;;5052837;28;20083;-60
2021/08/08 02:01:16;;;;;;;;;;;;;;;;;;5053332;28;19960;-60
2021/08/08 02:03:41;;;;;;;;;;;;;;;;;;5052976;28;19995;-60
2021/08/08 02:06:07;;;;;;;;;;;;;;;;;;5052805;28;20434;-61
2021/08/08 02:08:33;;;;;;;;;;;;;;;;;;5052779;28;19909;-61
2021/08/08 02:10:59;;;;;;;;;;;;;;;;;;5052883;28;19912;-61
2021/08/08 02:13:25;;;;;;;;;;;;;;;;;;5053358;28;20004;-61
2021/08/08 02:15:51;;;;;;;;;;;;;;;;;;5034368;28;19913;-61
2021/08/08 02:18:17;;;;;;;;;;;;;;;;;;5052849;28;19919;-61
2021/08/08 02:20:43;;;;;;;;;;;;;;;;;;5052513;28;20336;-61
2021/08/08 02:23:08;;;;;;;;;;;;;;;;;;5052720;28;20367;-60
2021/08/08 02:25:34;;;;;;;;;;;;;;;;;;5052886;28;19913;-60
2021/08/08 02:28:00;;;;;;;;;;;;;;;;;;5052234;28;19909;-60
2021/08/08 02:30:26;;;;;;;;;;;;;;;;;;5052751;28;19913;-60
2021/08/08 02:32:52;;;;;;;;;;;;;;;;;;5052152;28;20256;-61
2021/08/08 02:35:18;;;;;;;;;;;;;;;;;;5052276;28;19998;-60
2021/08/08 02:37:44;;;;;;;;;;;;;;;;;;5052749;28;19909;-60
2021/08/08 02:40:10;;;;;;;;;;;;;;;;;;5052401;28;19912;-60
2021/08/08 02:42:36;;;;;;;;;;;;;;;;;;5052495;28;20453;-60
2021/08/08 02:45:01;;;;;;;;;;;;;;;;;;5052342;28;19913;-61
2021/08/08 02:47:30;;;;;;;;;;;;;;;;;;5051581;28;19913;-61
2021/08/08 02:49:55;;;;;;;;;;;;;;;;;;5052276;28;19909;-61
2021/08/08 02:52:21;;;;;;;;;;;;;;;;;;5052755;28;19952;-60
2021/08/08 02:54:47;;;;;;;;;;;;;;;;;;5051566;28;19923;-60
2021/08/08 02:57:13;;;;;;;;;;;;;;;;;;5051936;28;19927;-60
2021/08/08 02:59:39;;;;;;;;;;;;;;;;;;5052037;28;19913;-61
2021/08/08 03:02:06;;;;;;;;;;;;;;;;;;5052050;28;19913;-60
2021/08/08 03:04:32;;;;;;;;;;;;;;;;;;5052111;28;19966;-61
2021/08/08 03:06:58;;;;;;;;;;;;;;;;;;5051571;28;19992;-61
2021/08/08 03:09:24;;;;;;;;;;;;;;;;;;5051507;28;19914;-61
2021/08/08 03:11:50;;;;;;;;;;;;;;;;;;5050514;28;20032;-61
2021/08/08 03:14:16;;;;;;;;;;;;;;;;;;5051838;28;19920;-60
2021/08/08 03:16:42;;;;;;;;;;;;;;;;;;5052009;28;19912;-60
2021/08/08 03:19:08;;;;;;;;;;;;;;;;;;5051618;28;19913;-60
2021/08/08 03:21:33;;;;;;;;;;;;;;;;;;5051302;28;19916;-60
2021/08/08 03:24:00;;;;;;;;;;;;;;;;;;5051637;28;19920;-60
2021/08/08 03:26:26;;;;;;;;;;;;;;;;;;5051670;28;19913;-60
2021/08/08 03:28:52;;;;;;;;;;;;;;;;;;5051475;28;19912;-60
2021/08/08 03:31:19;;;;;;;;;;;;;;;;;;5051744;28;19915;-60
2021/08/08 03:33:45;;;;;;;;;;;;;;;;;;5033407;28;20550;-60
2021/08/08 03:36:11;;;;;;;;;;;;;;;;;;5051666;28;19916;-61
2021/08/08 03:38:37;;;;;;;;;;;;;;;;;;5051574;28;19922;-60
2021/08/08 03:41:03;;;;;;;;;;;;;;;;;;5051453;28;20426;-60
2021/08/08 03:43:29;;;;;;;;;;;;;;;;;;5051373;28;20374;-61
2021/08/08 03:45:55;;;;;;;;;;;;;;;;;;5051497;28;19913;-60
2021/08/08 03:48:20;;;;;;;;;;;;;;;;;;5054100;28;20288;-60
2021/08/08 03:50:46;;;;;;;;;;;;;;;;;;5055265;28;19940;-60
2021/08/08 03:53:12;;;;;;;;;;;;;;;;;;5055474;28;19913;-60
2021/08/08 03:55:38;;;;;;;;;;;;;;;;;;5055588;28;19980;-60
2021/08/08 03:58:04;;;;;;;;;;;;;;;;;;5055317;28;19999;-61
2021/08/08 04:00:30;;;;;;;;;;;;;;;;;;5054829;28;20272;-60
2021/08/08 04:02:56;;;;;;;;;;;;;;;;;;5054659;28;19912;-61
2021/08/08 04:05:22;;;;;;;;;;;;;;;;;;5055425;28;19920;-61
2021/08/08 04:07:47;;;;;;;;;;;;;;;;;;5055685;28;19988;-60
2021/08/08 04:10:13;;;;;;;;;;;;;;;;;;5055232;28;19909;-60
2021/08/08 04:12:39;;;;;;;;;;;;;;;;;;5055044;28;20283;-61
2021/08/08 04:15:05;;;;;;;;;;;;;;;;;;5054587;28;19967;-60
2021/08/08 04:17:31;;;;;;;;;;;;;;;;;;5054937;28;19916;-60
2021/08/08 04:19:57;;;;;;;;;;;;;;;;;;5055278;28;20011;-61
2021/08/08 04:22:23;;;;;;;;;;;;;;;;;;5055408;28;19909;-61
2021/08/08 04:24:49;;;;;;;;;;;;;;;;;;5054874;28;19913;-61
2021/08/08 04:27:14;;;;;;;;;;;;;;;;;;5054981;28;19912;-61
2021/08/08 04:29:40;;;;;;;;;;;;;;;;;;5054570;28;19966;-60
2021/08/08 04:32:06;;;;;;;;;;;;;;;;;;5054744;28;20016;-60
2021/08/08 04:34:32;;;;;;;;;;;;;;;;;;5055091;28;19920;-60
2021/08/08 04:36:58;;;;;;;;;;;;;;;;;;5054631;28;20268;-61
2021/08/08 04:39:24;;;;;;;;;;;;;;;;;;5054640;28;19928;-60
2021/08/08 04:41:52;;;;;;;;;;;;;;;;;;5053946;28;19920;-61
2021/08/08 04:44:17;;;;;;;;;;;;;;;;;;5054527;28;19919;-60
2021/08/08 04:46:43;;;;;;;;;;;;;;;;;;5055045;28;20007;-60
2021/08/08 04:49:09;;;;;;;;;;;;;;;;;;5054414;28;19913;-60
2021/08/08 04:51:35;;;;;;;;;;;;;;;;;;5054610;28;19920;-61
2021/08/08 04:54:01;;;;;;;;;;;;;;;;;;5053676;28;19921;-61
2021/08/08 04:56:27;;;;;;;;;;;;;;;;;;5054276;28;20015;-60
2021/08/08 04:58:53;;;;;;;;;;;;;;;;;;5053328;28;19908;-60
2021/08/08 05:01:18;;;;;;;;;;;;;;;;;;5054598;28;20284;-61
2021/08/08 05:03:44;;;;;;;;;;;;;;;;;;5053648;28;19917;-60
2021/08/08 05:06:10;;;;;;;;;;;;;;;;;;5053596;28;19970;-61
2021/08/08 05:08:36;;;;;;;;;;;;;;;;;;5054287;28;19920;-60
2021/08/08 05:11:02;;;;;;;;;;;;;;;;;;5054219;28;20392;-60
2021/08/08 05:13:29;;;;;;;;;;;;;;;;;;5054362;28;19908;-60
2021/08/08 05:15:54;;;;;;;;;;;;;;;;;;5053142;28;19916;-60
2021/08/08 05:18:20;;;;;;;;;;;;;;;;;;5053937;28;20384;-60
2021/08/08 05:20:46;;;;;;;;;;;;;;;;;;5054096;28;19913;-60
2021/08/08 05:23:12;;;;;;;;;;;;;;;;;;5053807;28;20399;-61
2021/08/08 05:25:38;;;;;;;;;;;;;;;;;;5054050;28;19974;-61
2021/08/08 05:28:04;;;;;;;;;;;;;;;;;;5053347;28;19913;-60
2021/08/08 05:30:30;;;;;;;;;;;;;;;;;;5053619;28;19917;-61
2021/08/08 05:32:56;;;;;;;;;;;;;;;;;;5053608;28;19978;-60
2021/08/08 05:35:21;;;;;;;;;;;;;;;;;;5053891;28;20374;-60
2021/08/08 05:37:47;;;;;;;;;;;;;;;;;;5053219;28;19909;-60
2021/08/08 05:40:13;;;;;;;;;;;;;;;;;;5053977;28;19909;-61
2021/08/08 05:42:39;;;;;;;;;;;;;;;;;;5053144;28;19952;-61
2021/08/08 05:45:05;;;;;;;;;;;;;;;;;;5053510;28;19920;-60
2021/08/08 05:47:31;;;;;;;;;;;;;;;;;;5052913;28;20356;-61
2021/08/08 05:49:57;;;;;;;;;;;;;;;;;;5052977;28;19909;-61
2021/08/08 05:52:23;;;;;;;;;;;;;;;;;;5053578;28;20364;-61
2021/08/08 05:54:48;;;;;;;;;;;;;;;;;;5052702;28;20087;-61
2021/08/08 05:57:14;;;;;;;;;;;;;;;;;;5052768;28;19921;-60
2021/08/08 05:59:40;;;;;;;;;;;;;;;;;;5035287;28;19914;-61
2021/08/08 06:02:06;;;;;;;;;;;;;;;;;;5052226;28;19909;-61
2021/08/08 06:04:32;;;;;;;;;;;;;;;;;;5053699;28;19913;-61
2021/08/08 06:06:58;;;;;;;;;;;;;;;;;;5053023;28;20376;-61
2021/08/08 06:09:24;;;;;;;;;;;;;;;;;;5042721;28;19917;-61
2021/08/08 06:11:50;;;;;;;;;;;;;;;;;;5037670;28;20047;-61
2021/08/08 06:14:16;;;;;;;;;;;;;;;;;;5037645;28;20556;-61
2021/08/08 06:16:41;;;;;;;;;;;;;;;;;;5052164;28;19931;-61
2021/08/08 06:19:07;;;;;;;;;;;;;;;;;;5049444;28;19982;-61
2021/08/08 06:21:33;;;;;;;;;;;;;;;;;;5050830;28;20005;-61
2021/08/08 06:24:00;;;;;;;;;;;;;;;;;;5050921;28;20396;-61
2021/08/08 06:26:25;;;;;;;;;;;;;;;;;;5050733;28;19913;-61
2021/08/08 06:28:54;;;;;;;;;;;;;;;;;;5051169;28;19923;-61
2021/08/08 06:31:20;;;;;;;;;;;;;;;;;;5038983;28;19915;-61
2021/08/08 06:33:46;;;;;;;;;;;;;;;;;;5050992;28;19913;-61
2021/08/08 06:36:12;;;;;;;;;;;;;;;;;;5050642;28;20364;-61
2021/08/08 06:38:38;;;;;;;;;;;;;;;;;;5051171;28;19921;-61
2021/08/08 06:41:04;;;;;;;;;;;;;;;;;;5033767;28;19909;-60
2021/08/08 06:43:30;;;;;;;;;;;;;;;;;;5045078;28;19909;-61
2021/08/08 06:45:56;;;;;;;;;;;;;;;;;;5045612;28;20728;-61
2021/08/08 06:48:21;;;;;;;;;;;;;;;;;;5051173;28;20124;-60
2021/08/08 06:50:48;;;;;;;;;;;;;;;;;;5049592;28;19927;-61
2021/08/08 06:53:14;;;;;;;;;;;;;;;;;;5051134;28;19921;-62
2021/08/08 06:55:40;;;;;;;;;;;;;;;;;;5052229;28;19970;-61
2021/08/08 06:58:05;;;;;;;;;;;;;;;;;;5051532;28;20004;-61
2021/08/08 07:00:31;;;;;;;;;;;;;;;;;;5051897;28;19912;-61
2021/08/08 07:02:57;;;;;;;;;;;;;;;;;;5051060;28;20288;-61
2021/08/08 07:05:23;;;;;;;;;;;;;;;;;;5051833;28;20284;-61
2021/08/08 07:07:49;;;;;;;;;;;;;;;;;;5050647;28;19924;-60
2021/08/08 07:10:15;;;;;;;;;;;;;;;;;;5039871;28;19909;-60
2021/08/08 07:12:41;;;;;;;;;;;;;;;;;;5044848;28;19988;-60
2021/08/08 07:15:07;;;;;;;;;;;;;;;;;;5051707;28;20320;-60
2021/08/08 07:17:33;;;;;;;;;;;;;;;;;;5051604;28;19917;-60
2021/08/08 07:19:59;;;;;;;;;;;;;;;;;;5051587;28;19909;-61
2021/08/08 07:22:25;;;;;;;;;;;;;;;;;;5044658;28;20076;-61
2021/08/08 07:24:52;;;;;;;;;;;;;;;;;;5045974;28;19913;-69
2021/08/08 07:27:18;;;;;;;;;;;;;;;;;;5051634;28;19919;-69
2021/08/08 07:29:44;;;;;;;;;;;;;;;;;;5051201;28;20012;-69
2021/08/08 07:32:09;;;;;;;;;;;;;;;;;;5051748;28;19920;-69
2021/08/08 07:34:35;;;;;;;;;;;;;;;;;;5051656;28;19916;-69
2021/08/08 07:37:01;;;;;;;;;;;;;;;;;;5039408;28;20395;-69
2021/08/08 07:39:29;;;;;;;;;;;;;;;;;;5046107;28;20047;-69
2021/08/08 07:41:54;;;;;;;;;;;;;;;;;;5040784;28;20054;-68
2021/08/08 07:44:20;;;;;;;;;;;;;;;;;;5050911;28;20007;-69
2021/08/08 07:46:46;;;;;;;;;;;;;;;;;;5051311;28;20394;-69
2021/08/08 07:49:12;;;;;;;;;;;;;;;;;;5049524;28;19923;-69
2021/08/08 07:51:38;;;;;;;;;;;;;;;;;;5032995;28;19928;-69
2021/08/08 07:54:04;;;;;;;;;;;;;;;;;;5050323;28;19956;-70
2021/08/08 07:56:31;;;;;;;;;;;;;;;;;;5050768;28;19925;-69
2021/08/08 07:58:57;;;;;;;;;;;;;;;;;;5033429;28;20372;-66
2021/08/08 08:01:22;;;;;;;;;;;;;;;;;;5050430;28;20007;-66
2021/08/08 08:03:48;;;;;;;;;;;;;;;;;;5031733;28;19913;-68
2021/08/08 08:06:14;;;;;;;;;;;;;;;;;;5041370;28;20391;-67
2021/08/08 08:08:42;;;;;;;;;;;;;;;;;;5041147;28;20284;-68
2021/08/08 08:11:08;;;;;;;;;;;;;;;;;;5041102;28;19916;-68
2021/08/08 08:13:34;;;;;;;;;;;;;;;;;;5038976;28;19936;-67
2021/08/08 08:15:59;;;;;;;;;;;;;;;;;;5042045;28;19975;-69
2021/08/08 08:18:25;;;;;;;;;;;;;;;;;;5040853;28;20003;-67
2021/08/08 08:20:51;;;;;;;;;;;;;;;;;;5040310;28;19919;-68
2021/08/08 08:23:18;;;;;;;;;;;;;;;;;;5035743;28;19913;-69
2021/08/08 08:25:44;;;;;;;;;;;;;;;;;;5036759;28;19913;-69
2021/08/08 08:28:12;;;;;;;;;;;;;;;;;;5039024;28;19963;-69
2021/08/08 08:30:38;;;;;;;;;;;;;;;;;;5040099;28;19920;-69
2021/08/08 08:33:04;;;;;;;;;;;;;;;;;;5022328;28;19913;-69
2021/08/08 08:35:30;;;;;;;;;;;;;;;;;;5042810;28;20308;-69
2021/08/08 08:37:56;;;;;;;;;;;;;;;;;;5041992;28;19909;-70
2021/08/08 08:40:22;;;;;;;;;;;;;;;;;;5043846;28;20414;-70
2021/08/08 08:42:48;;;;;;;;;;;;;;;;;;5044729;28;19913;-70
2021/08/08 08:45:14;;;;;;;;;;;;;;;;;;5045033;28;20020;-70
2021/08/08 08:47:41;;;;;;;;;;;;;;;;;;5043509;28;19913;-70
2021/08/08 08:50:08;;;;;;;;;;;;;;;;;;5045176;28;20312;-70
2021/08/08 08:52:34;;;;;;;;;;;;;;;;;;5042069;28;19916;-70
2021/08/08 08:54:59;;;;;;;;;;;;;;;;;;5046636;28;19921;-70
2021/08/08 08:57:27;;;;;;;;;;;;;;;;;;5045213;28;20339;-70
2021/08/08 08:59:52;;;;;;;;;;;;;;;;;;5045762;28;19916;-70
2021/08/08 09:02:18;;;;;;;;;;;;;;;;;;5045207;28;19959;-70
2021/08/08 09:04:44;;;;;;;;;;;;;;;;;;5045142;28;20364;-70
2021/08/08 09:07:10;;;;;;;;;;;;;;;;;;5045693;28;19921;-70
2021/08/08 09:09:36;;;;;;;;;;;;;;;;;;5046373;28;20000;-69
2021/08/08 09:12:02;;;;;;;;;;;;;;;;;;5046279;28;19921;-70
2021/08/08 09:14:28;;;;;;;;;;;;;;;;;;5043718;28;20237;-68
2021/08/08 09:16:54;;;;;;;;;;;;;;;;;;5044945;28;20044;-69
2021/08/08 09:19:19;;;;;;;;;;;;;;;;;;5045233;28;20377;-66
2021/08/08 09:21:45;;;;;;;;;;;;;;;;;;5046152;28;19913;-67
2021/08/08 09:24:11;;;;;;;;;;;;;;;;;;5045566;28;20284;-70
2021/08/08 09:26:37;;;;;;;;;;;;;;;;;;5043827;28;19912;-69
2021/08/08 09:29:03;;;;;;;;;;;;;;;;;;5045071;28;19913;-69
2021/08/08 09:31:29;;;;;;;;;;;;;;;;;;5046414;28;19909;-70
2021/08/08 09:33:55;;;;;;;;;;;;;;;;;;5041483;28;19936;-69
2021/08/08 09:36:21;;;;;;;;;;;;;;;;;;5043852;28;19917;-69
2021/08/08 09:38:46;;;;;;;;;;;;;;;;;;5044368;28;20007;-67
2021/08/08 09:41:12;;;;;;;;;;;;;;;;;;5042988;28;19920;-71
2021/08/08 09:43:38;;;;;;;;;;;;;;;;;;5042022;28;19915;-70
2021/08/08 09:46:04;;;;;;;;;;;;;;;;;;5040270;28;20279;-68
2021/08/08 09:48:30;;;;;;;;;;;;;;;;;;5046383;28;20314;-67
2021/08/08 09:50:56;;;;;;;;;;;;;;;;;;5051563;28;19912;-69
2021/08/08 09:53:22;;;;;;;;;;;;;;;;;;5051577;28;20682;-68
2021/08/08 09:55:48;;;;;;;;;;;;;;;;;;5051262;28;19921;-68
2021/08/08 09:58:15;;;;;;;;;;;;;;;;;;5045114;28;19913;-68
2021/08/08 10:00:41;;;;;;;;;;;;;;;;;;5045516;28;19919;-69
2021/08/08 10:03:07;;;;;;;;;;;;;;;;;;5049414;28;19999;-69
2021/08/08 10:05:34;;;;;;;;;;;;;;;;;;5050041;28;19913;-69
2021/08/08 10:08:00;;;;;;;;;;;;;;;;;;5050891;28;20080;-69
2021/08/08 10:10:26;;;;;;;;;;;;;;;;;;5049836;28;19989;-69
2021/08/08 10:12:52;;;;;;;;;;;;;;;;;;5049935;28;20084;-69
2021/08/08 10:15:17;;;;;;;;;;;;;;;;;;5046866;28;20108;-69
2021/08/08 10:17:43;;;;;;;;;;;;;;;;;;5052450;28;19913;-69
2021/08/08 10:20:09;;;;;;;;;;;;;;;;;;5032973;28;19913;-69
2021/08/08 10:22:35;;;;;;;;;;;;;;;;;;5033860;28;19955;-69
2021/08/08 10:25:01;;;;;;;;;;;;;;;;;;5030982;28;20334;-70
2021/08/08 10:27:27;;;;;;;;;;;;;;;;;;5052313;28;19916;-69
2021/08/08 10:29:53;;;;;;;;;;;;;;;;;;5052068;28;19917;-69
2021/08/08 10:32:19;;;;;;;;;;;;;;;;;;5052444;28;19970;-69
2021/08/08 10:34:44;;;;;;;;;;;;;;;;;;5052400;28;20395;-69
2021/08/08 10:37:10;;;;;;;;;;;;;;;;;;5049742;28;19917;-69
2021/08/08 10:39:36;;;;;;;;;;;;;;;;;;5051783;28;20015;-70
2021/08/08 10:42:02;;;;;;;;;;;;;;;;;;5052116;28;20000;-70
2021/08/08 10:44:28;;;;;;;;;;;;;;;;;;5050428;28;19913;-69
2021/08/08 10:46:54;;;;;;;;;;;;;;;;;;5040311;28;19963;-69
2021/08/08 10:49:20;;;;;;;;;;;;;;;;;;5051679;28;20361;-69
2021/08/08 10:51:46;;;;;;;;;;;;;;;;;;5051253;28;19920;-69
2021/08/08 10:54:11;;;;;;;;;;;;;;;;;;5051738;28;20426;-66
2021/08/08 10:56:37;;;;;;;;;;;;;;;;;;5050630;28;19974;-68
2021/08/08 10:59:03;;;;;;;;;;;;;;;;;;5051361;28;19915;-68
2021/08/08 11:01:29;;;;;;;;;;;;;;;;;;5046792;28;19924;-68
2021/08/08 11:03:55;;;;;;;;;;;;;;;;;;5048851;28;20330;-68
2021/08/08 11:06:21;;;;;;;;;;;;;;;;;;5051411;28;19951;-68
2021/08/08 11:08:47;;;;;;;;;;;;;;;;;;5051487;28;19940;-69
2021/08/08 11:11:12;;;;;;;;;;;;;;;;;;5050905;28;19913;-68
2021/08/08 11:13:38;;;;;;;;;;;;;;;;;;5051702;28;19955;-68
2021/08/08 11:16:04;;;;;;;;;;;;;;;;;;5046668;28;20273;-68
2021/08/08 11:18:30;;;;;;;;;;;;;;;;;;5051073;28;19913;-69
2021/08/08 11:20:56;;;;;;;;;;;;;;;;;;5051081;28;20006;-68
2021/08/08 11:23:22;;;;;;;;;;;;;;;;;;5049171;28;20428;-68
2021/08/08 11:25:48;;;;;;;;;;;;;;;;;;5051257;28;20035;-68
2021/08/08 11:28:14;;;;;;;;;;;;;;;;;;5051388;28;19909;-68
2021/08/08 11:30:39;;;;;;;;;;;;;;;;;;5050947;28;19912;-69
2021/08/08 11:33:05;;;;;;;;;;;;;;;;;;5048557;28;19971;-68
2021/08/08 11:35:31;;;;;;;;;;;;;;;;;;5051365;28;19974;-68
2021/08/08 11:37:57;;;;;;;;;;;;;;;;;;5051342;28;20336;-69
2021/08/08 11:40:23;;;;;;;;;;;;;;;;;;5050177;28;19914;-69
2021/08/08 11:42:49;;;;;;;;;;;;;;;;;;5050692;28;20326;-69
2021/08/08 11:45:15;;;;;;;;;;;;;;;;;;5046489;28;20003;-69
2021/08/08 11:47:41;;;;;;;;;;;;;;;;;;5050761;28;19940;-68
2021/08/08 11:50:07;;;;;;;;;;;;;;;;;;5050316;28;19932;-68
2021/08/08 11:52:34;;;;;;;;;;;;;;;;;;5051307;28;19909;-68
2021/08/08 11:55:00;;;;;;;;;;;;;;;;;;5046900;28;19921;-68
2021/08/08 11:57:26;;;;;;;;;;;;;;;;;;5050569;28;20394;-68
2021/08/08 11:59:52;;;;;;;;;;;;;;;;;;5050591;28;20144;-68
2021/08/08 12:02:18;;;;;;;;;;;;;;;;;;5050614;28;19924;-68
2021/08/08 12:04:44;;;;;;;;;;;;;;;;;;5044105;28;19975;-68
2021/08/08 12:07:10;;;;;;;;;;;;;;;;;;5050842;28;20436;-68
2021/08/08 12:09:36;;;;;;;;;;;;;;;;;;5052998;28;19932;-68
2021/08/08 12:12:01;;;;;;;;;;;;;;;;;;5054512;28;20011;-68
2021/08/08 12:14:27;;;;;;;;;;;;;;;;;;5054445;28;20300;-68
2021/08/08 12:16:53;;;;;;;;;;;;;;;;;;5054307;28;19913;-68
2021/08/08 12:19:19;;;;;;;;;;;;;;;;;;5055201;28;19916;-68
2021/08/08 12:21:45;;;;;;;;;;;;;;;;;;5054374;28;19956;-68
2021/08/08 12:24:11;;;;;;;;;;;;;;;;;;5036069;28;19920;-68
2021/08/08 12:26:37;;;;;;;;;;;;;;;;;;5054633;28;20334;-68
2021/08/08 12:29:03;;;;;;;;;;;;;;;;;;5053913;28;20042;-68
2021/08/08 12:31:29;;;;;;;;;;;;;;;;;;5050869;28;19915;-68
2021/08/08 12:33:55;;;;;;;;;;;;;;;;;;5053532;28;19913;-68
2021/08/08 12:36:21;;;;;;;;;;;;;;;;;;5053997;28;20342;-68
2021/08/08 12:38:47;;;;;;;;;;;;;;;;;;5054395;28;19913;-68
2021/08/08 12:41:13;;;;;;;;;;;;;;;;;;5054184;28;19971;-68
2021/08/08 12:43:39;;;;;;;;;;;;;;;;;;5054473;28;20356;-68
2021/08/08 12:46:04;;;;;;;;;;;;;;;;;;5053702;28;19913;-68
2021/08/08 12:48:30;;;;;;;;;;;;;;;;;;5053899;28;19940;-68
2021/08/08 12:50:56;;;;;;;;;;;;;;;;;;5053914;28;20268;-68
2021/08/08 12:53:22;;;;;;;;;;;;;;;;;;5054013;28;19920;-68
2021/08/08 12:55:50;;;;;;;;;;;;;;;;;;5054322;28;19979;-68
2021/08/08 12:58:16;;;;;;;;;;;;;;;;;;5053341;28;19920;-68
2021/08/08 13:00:42;;;;;;;;;;;;;;;;;;5053392;28;19912;-69
2021/08/08 13:03:08;;;;;;;;;;;;;;;;;;5053758;28;20011;-69
2021/08/08 13:05:34;;;;;;;;;;;;;;;;;;5052006;28;19909;-69
2021/08/08 13:08:00;;;;;;;;;;;;;;;;;;5053236;28;19920;-69
2021/08/08 13:10:26;;;;;;;;;;;;;;;;;;5054223;28;20378;-68
2021/08/08 13:12:51;;;;;;;;;;;;;;;;;;5053145;28;19909;-68
2021/08/08 13:15:17;;;;;;;;;;;;;;;;;;5053303;28;19925;-68
2021/08/08 13:17:43;;;;;;;;;;;;;;;;;;5053286;28;20015;-69
2021/08/08 13:20:09;;;;;;;;;;;;;;;;;;5034197;28;19925;-69
2021/08/08 13:22:35;;;;;;;;;;;;;;;;;;5054053;28;19909;-68
2021/08/08 13:25:01;;;;;;;;;;;;;;;;;;5050936;28;20322;-68
2021/08/08 13:27:27;;;;;;;;;;;;;;;;;;5053354;28;19935;-69
2021/08/08 13:29:53;;;;;;;;;;;;;;;;;;5053116;28;19960;-68
2021/08/08 13:32:19;;;;;;;;;;;;;;;;;;5052587;28;19909;-69
2021/08/08 13:34:44;;;;;;;;;;;;;;;;;;5053706;28;19964;-68
2021/08/08 13:37:13;;;;;;;;;;;;;;;;;;5053143;28;19920;-69
2021/08/08 13:39:39;;;;;;;;;;;;;;;;;;5052877;28;20338;-68
2021/08/08 13:42:05;;;;;;;;;;;;;;;;;;5052316;28;19913;-68
2021/08/08 13:44:31;;;;;;;;;;;;;;;;;;5053102;28;19920;-68
2021/08/08 13:46:57;;;;;;;;;;;;;;;;;;5050896;28;20319;-68
2021/08/08 13:49:23;;;;;;;;;;;;;;;;;;5053122;28;20043;-68
2021/08/08 13:51:49;;;;;;;;;;;;;;;;;;5052593;28;19913;-68
2021/08/08 13:54:15;;;;;;;;;;;;;;;;;;5048735;28;19921;-68
2021/08/08 13:56:41;;;;;;;;;;;;;;;;;;5040365;28;19928;-69
2021/08/08 13:59:07;;;;;;;;;;;;;;;;;;5053258;28;20265;-68
2021/08/08 14:01:32;;;;;;;;;;;;;;;;;;5053346;28;19912;-68
2021/08/08 14:03:58;;;;;;;;;;;;;;;;;;5052815;28;20011;-68
2021/08/08 14:06:25;;;;;;;;;;;;;;;;;;5052907;28;19920;-68
2021/08/08 14:08:51;;;;;;;;;;;;;;;;;;5053014;28;20287;-68
2021/08/08 14:11:17;;;;;;;;;;;;;;;;;;5052414;28;19913;-68
2021/08/08 14:13:43;;;;;;;;;;;;;;;;;;5053546;28;20390;-69
2021/08/08 14:16:09;;;;;;;;;;;;;;;;;;5052376;28;19949;-69
2021/08/08 14:18:35;;;;;;;;;;;;;;;;;;5052659;28;20387;-69
2021/08/08 14:21:00;;;;;;;;;;;;;;;;;;5052671;28;19959;-69
2021/08/08 14:23:26;;;;;;;;;;;;;;;;;;5052538;28;19967;-69
2021/08/08 14:25:54;;;;;;;;;;;;;;;;;;5052498;28;19916;-69
2021/08/08 14:28:20;;;;;;;;;;;;;;;;;;5052130;28;19940;-69
2021/08/08 14:30:46;;;;;;;;;;;;;;;;;;5052404;28;19909;-68
2021/08/08 14:33:12;;;;;;;;;;;;;;;;;;5052515;28;20015;-68
2021/08/08 14:35:38;;;;;;;;;;;;;;;;;;5052260;28;19920;-68
2021/08/08 14:38:04;;;;;;;;;;;;;;;;;;5052097;28;19936;-68
2021/08/08 14:40:29;;;;;;;;;;;;;;;;;;5052953;28;20059;-68
2021/08/08 14:42:55;;;;;;;;;;;;;;;;;;5052280;28;20198;-69
2021/08/08 14:45:21;;;;;;;;;;;;;;;;;;5052435;28;19913;-68
2021/08/08 14:47:47;;;;;;;;;;;;;;;;;;5052071;28;19999;-68
2021/08/08 14:50:13;;;;;;;;;;;;;;;;;;5052366;28;19919;-68
2021/08/08 14:52:39;;;;;;;;;;;;;;;;;;5052323;28;19936;-69
2021/08/08 14:55:05;;;;;;;;;;;;;;;;;;5051811;28;19975;-69
2021/08/08 14:57:31;;;;;;;;;;;;;;;;;;5051881;28;20257;-68
2021/08/08 14:59:56;;;;;;;;;;;;;;;;;;5052111;28;19956;-69
2021/08/08 15:02:22;;;;;;;;;;;;;;;;;;5051996;28;22485;-69
2021/08/08 15:04:48;;;;;;;;;;;;;;;;;;5052204;28;19968;-69
2021/08/08 15:07:14;;;;;;;;;;;;;;;;;;5052112;28;19970;-69
2021/08/08 15:09:40;;;;;;;;;;;;;;;;;;5051735;28;20393;-69
2021/08/08 15:12:07;;;;;;;;;;;;;;;;;;5051357;28;20003;-69
2021/08/08 15:14:33;;;;;;;;;;;;;;;;;;5051796;28;19924;-69
2021/08/08 15:16:58;;;;;;;;;;;;;;;;;;5051980;28;19916;-69
2021/08/08 15:19:24;;;;;;;;;;;;;;;;;;5052493;28;19940;-69
2021/08/08 15:21:50;;;;;;;;;;;;;;;;;;5033690;28;20331;-69
2021/08/08 15:24:16;;;;;;;;;;;;;;;;;;5051263;28;20369;-68
2021/08/08 15:26:42;;;;;;;;;;;;;;;;;;5051563;28;20280;-60
2021/08/08 15:29:08;;;;;;;;;;;;;;;;;;5051712;28;20012;-60
2021/08/08 15:31:34;;;;;;;;;;;;;;;;;;5052283;28;20370;-60
2021/08/08 15:34:00;;;;;;;;;;;;;;;;;;5051528;28;19913;-60
2021/08/08 15:36:25;;;;;;;;;;;;;;;;;;5033637;28;20442;-60
2021/08/08 15:38:51;;;;;;;;;;;;;;;;;;5050494;28;19912;-60
2021/08/08 15:41:17;;;;;;;;;;;;;;;;;;5051754;28;19917;-60
2021/08/08 15:43:43;;;;;;;;;;;;;;;;;;5055550;28;19913;-60
2021/08/08 15:46:09;;;;;;;;;;;;;;;;;;5058058;28;19919;-60
2021/08/08 15:48:35;;;;;;;;;;;;;;;;;;5057693;28;19923;-60
2021/08/08 15:51:01;;;;;;;;;;;;;;;;;;5057825;28;19913;-60
2021/08/08 15:53:27;;;;;;;;;;;;;;;;;;5057934;28;19934;-60
2021/08/08 15:55:53;;;;;;;;;;;;;;;;;;5058138;28;20379;-60
2021/08/08 15:58:18;;;;;;;;;;;;;;;;;;5058270;28;20288;-60
2021/08/08 16:00:44;;;;;;;;;;;;;;;;;;5057929;28;19909;-60
2021/08/08 16:03:10;;;;;;;;;;;;;;;;;;5057958;28;19920;-60
2021/08/08 16:05:38;;;;;;;;;;;;;;;;;;5057793;28;20280;-60
2021/08/08 16:08:04;;;;;;;;;;;;;;;;;;5057496;28;20382;-61
2021/08/08 16:10:30;;;;;;;;;;;;;;;;;;5058252;28;19916;-60
2021/08/08 16:12:56;;;;;;;;;;;;;;;;;;5057994;28;19916;-61
2021/08/08 16:15:22;;;;;;;;;;;;;;;;;;5057771;28;19920;-60
2021/08/08 16:17:48;;;;;;;;;;;;;;;;;;5039564;28;19913;-60
2021/08/08 16:20:15;;;;;;;;;;;;;;;;;;5039985;28;20315;-60
2021/08/08 16:22:41;;;;;;;;;;;;;;;;;;5057705;28;19916;-60
2021/08/08 16:25:07;;;;;;;;;;;;;;;;;;5057703;28;19912;-60
2021/08/08 16:27:33;;;;;;;;;;;;;;;;;;5057714;28;20007;-60
2021/08/08 16:29:59;;;;;;;;;;;;;;;;;;5057309;28;19916;-60
2021/08/08 16:32:25;;;;;;;;;;;;;;;;;;5058038;28;20419;-60
2021/08/08 16:34:51;;;;;;;;;;;;;;;;;;5058048;28;19914;-60
2021/08/08 16:37:18;;;;;;;;;;;;;;;;;;5057092;28;19928;-60